createdAt,value
2018-01-17T00:01:20.109Z,0.00
2018-01-17T00:02:19.071Z,0.00
2018-01-17T00:04:15.036Z,0.00
2018-01-17T00:05:15.011Z,0.00
2018-01-17T00:07:11.445Z,0.00
2018-01-17T00:08:11.453Z,0.00
2018-01-17T00:10:07.808Z,0.00
2018-01-17T00:11:06.859Z,0.00
2018-01-17T00:13:24.034Z,0.00
2018-01-17T00:14:02.809Z,0.00
2018-01-17T00:15:58.306Z,0.00
2018-01-17T00:16:59.456Z,0.00
2018-01-17T00:19:04.970Z,0.00
2018-01-17T00:20:04.928Z,0.00
2018-01-17T00:22:01.806Z,0.00
2018-01-17T00:23:00.853Z,0.00
2018-01-17T00:24:57.314Z,0.00
2018-01-17T00:25:56.786Z,0.00
2018-01-17T00:27:53.236Z,0.00
2018-01-17T00:28:52.717Z,0.00
2018-01-17T00:30:49.150Z,0.00
2018-01-17T00:31:48.620Z,0.00
2018-01-17T00:33:45.064Z,0.00
2018-01-17T00:34:44.541Z,0.00
2018-01-17T00:36:40.474Z,0.00
2018-01-17T00:37:40.995Z,0.00
2018-01-17T00:39:34.929Z,0.00
2018-01-17T00:40:34.929Z,0.00
2018-01-17T00:42:30.831Z,0.00
2018-01-17T00:43:30.810Z,0.00
2018-01-17T00:45:27.308Z,0.00
2018-01-17T00:46:26.734Z,0.00
2018-01-17T00:48:23.188Z,0.00
2018-01-17T00:49:22.646Z,0.00
2018-01-17T00:51:18.630Z,0.00
2018-01-17T00:52:18.606Z,0.00
2018-01-17T00:54:16.038Z,0.00
2018-01-17T00:55:14.525Z,0.00
2018-01-17T00:57:08.967Z,0.00
2018-01-17T00:58:08.952Z,0.00
2018-01-17T01:00:05.827Z,0.00
2018-01-17T01:01:04.859Z,0.00
2018-01-17T01:03:00.813Z,0.00
2018-01-17T01:04:00.798Z,0.00
2018-01-17T01:05:57.271Z,0.00
2018-01-17T01:06:56.731Z,0.00
2018-01-17T01:08:52.682Z,0.00
2018-01-17T01:09:52.639Z,0.00
2018-01-17T01:11:49.103Z,0.00
2018-01-17T01:12:48.581Z,0.00
2018-01-17T01:14:45.010Z,0.00
2018-01-17T01:15:44.512Z,0.00
2018-01-17T01:17:40.949Z,0.00
2018-01-17T01:18:40.422Z,0.00
2018-01-17T01:20:36.351Z,0.00
2018-01-17T01:21:36.340Z,0.00
2018-01-17T01:23:34.788Z,0.00
2018-01-17T01:24:32.284Z,0.00
2018-01-17T01:26:28.189Z,0.00
2018-01-17T01:27:28.203Z,0.00
2018-01-17T01:29:24.130Z,0.00
2018-01-17T01:30:24.127Z,0.00
2018-01-17T01:32:21.131Z,0.00
2018-01-17T01:33:20.037Z,0.00
2018-01-17T01:35:16.487Z,0.00
2018-01-17T01:36:15.965Z,0.00
2018-01-17T01:38:14.911Z,0.00
2018-01-17T01:39:12.405Z,0.00
2018-01-17T01:41:07.825Z,0.00
2018-01-17T01:42:07.797Z,0.00
2018-01-17T01:44:04.243Z,0.00
2018-01-17T01:45:04.280Z,0.00
2018-01-17T01:46:59.663Z,0.00
2018-01-17T01:47:59.657Z,0.00
2018-01-17T01:50:00.598Z,0.00
2018-01-17T01:50:55.575Z,0.00
2018-01-17T01:52:52.953Z,0.00
2018-01-17T01:53:51.475Z,0.00
2018-01-17T01:55:47.932Z,0.00
2018-01-17T01:56:47.395Z,0.00
2018-01-17T01:58:43.310Z,0.00
2018-01-17T01:59:43.855Z,0.00
2018-01-17T02:01:39.269Z,0.00
2018-01-17T02:02:39.256Z,0.00
2018-01-17T02:04:35.212Z,0.00
2018-01-17T02:05:35.176Z,0.00
2018-01-17T02:07:31.136Z,0.00
2018-01-17T02:08:31.624Z,0.00
2018-01-17T02:10:28.555Z,0.00
2018-01-17T02:11:27.642Z,0.00
2018-01-17T02:13:24.527Z,0.00
2018-01-17T02:14:23.001Z,0.00
2018-01-17T02:16:18.940Z,0.00
2018-01-17T02:17:18.916Z,0.00
2018-01-17T02:19:15.369Z,0.00
2018-01-17T02:20:14.868Z,0.00
2018-01-17T02:22:10.838Z,0.00
2018-01-17T02:23:10.824Z,0.00
2018-01-17T02:25:06.742Z,0.00
2018-01-17T02:26:06.736Z,0.00
2018-01-17T02:28:02.658Z,0.00
2018-01-17T02:29:02.659Z,0.00
2018-01-17T02:31:00.607Z,0.00
2018-01-17T02:31:58.587Z,0.00
2018-01-17T02:33:54.527Z,0.00
2018-01-17T02:34:54.506Z,0.00
2018-01-17T02:36:50.982Z,0.00
2018-01-17T02:37:50.973Z,0.00
2018-01-17T02:39:47.362Z,0.00
2018-01-17T02:40:46.340Z,0.00
2018-01-17T02:42:42.311Z,0.00
2018-01-17T02:43:42.238Z,0.00
2018-01-17T02:45:38.196Z,0.00
2018-01-17T02:46:38.179Z,0.00
2018-01-17T02:48:34.167Z,0.00
2018-01-17T02:49:34.109Z,0.00
2018-01-17T02:51:30.061Z,0.00
2018-01-17T02:52:30.059Z,0.00
2018-01-17T02:54:26.479Z,0.00
2018-01-17T02:55:26.912Z,0.00
2018-01-17T02:57:21.916Z,0.00
2018-01-17T02:58:21.894Z,0.00
2018-01-17T03:00:17.842Z,0.00
2018-01-17T03:01:17.824Z,0.00
2018-01-17T03:03:14.285Z,0.00
2018-01-17T03:04:13.727Z,0.00
2018-01-17T03:06:10.180Z,0.00
2018-01-17T03:07:09.641Z,0.00
2018-01-17T03:09:05.607Z,0.00
2018-01-17T03:10:06.084Z,0.00
2018-01-17T03:12:02.014Z,0.00
2018-01-17T03:13:01.473Z,0.00
2018-01-17T03:14:57.920Z,0.00
2018-01-17T03:15:57.926Z,0.00
2018-01-17T03:17:53.326Z,0.00
2018-01-17T03:18:53.338Z,0.00
2018-01-17T03:20:50.282Z,0.00
2018-01-17T03:21:49.276Z,0.00
2018-01-17T03:23:46.713Z,0.00
2018-01-17T03:24:45.199Z,0.00
2018-01-17T03:26:41.126Z,0.00
2018-01-17T03:27:41.124Z,0.00
2018-01-17T03:29:37.079Z,0.00
2018-01-17T03:30:37.026Z,0.00
2018-01-17T03:32:33.480Z,0.00
2018-01-17T03:33:34.483Z,0.00
2018-01-17T03:35:28.877Z,0.00
2018-01-17T03:36:28.877Z,0.00
2018-01-17T03:38:24.842Z,0.00
2018-01-17T03:39:25.678Z,0.00
2018-01-17T03:41:21.275Z,0.00
2018-01-17T03:42:20.732Z,0.00
2018-01-17T03:44:16.696Z,0.00
2018-01-17T03:45:16.655Z,0.00
2018-01-17T03:47:12.635Z,0.00
2018-01-17T03:48:12.608Z,0.00
2018-01-17T03:50:08.507Z,0.00
2018-01-17T03:51:08.505Z,0.00
2018-01-17T03:53:04.955Z,0.00
2018-01-17T03:54:04.392Z,0.00
2018-01-17T03:56:00.840Z,0.00
2018-01-17T03:57:00.342Z,0.00
2018-01-17T03:58:56.268Z,0.00
2018-01-17T03:59:56.257Z,0.00
2018-01-17T04:01:52.180Z,0.00
2018-01-17T04:02:52.172Z,0.00
2018-01-17T04:04:49.622Z,0.00
2018-01-17T04:05:48.106Z,0.00
2018-01-17T04:07:44.060Z,0.00
2018-01-17T04:08:44.559Z,0.00
2018-01-17T04:10:39.976Z,0.00
2018-01-17T04:11:39.963Z,0.00
2018-01-17T04:13:35.931Z,0.00
2018-01-17T04:14:35.876Z,0.00
2018-01-17T04:16:31.839Z,0.00
2018-01-17T04:17:31.786Z,0.00
2018-01-17T04:19:28.246Z,0.00
2018-01-17T04:20:27.734Z,0.00
2018-01-17T04:22:23.636Z,0.00
2018-01-17T04:23:23.618Z,0.00
2018-01-17T04:25:20.075Z,0.00
2018-01-17T04:26:19.538Z,0.00
2018-01-17T04:28:15.460Z,0.00
2018-01-17T04:29:15.477Z,0.00
2018-01-17T04:31:11.438Z,0.00
2018-01-17T04:32:11.374Z,0.00
2018-01-17T04:34:07.333Z,0.00
2018-01-17T04:35:07.311Z,0.00
2018-01-17T04:37:03.234Z,0.00
2018-01-17T04:38:03.775Z,0.00
2018-01-17T04:39:59.165Z,0.00
2018-01-17T04:40:59.150Z,0.00
2018-01-17T04:42:55.138Z,0.00
2018-01-17T04:43:55.057Z,0.00
2018-01-17T04:45:52.017Z,0.00
2018-01-17T04:46:50.995Z,0.00
2018-01-17T04:48:47.425Z,0.00
2018-01-17T04:49:46.898Z,0.00
2018-01-17T04:51:42.891Z,0.00
2018-01-17T04:52:42.847Z,0.00
2018-01-17T04:54:38.857Z,0.00
2018-01-17T04:55:39.303Z,0.00
2018-01-17T04:57:35.259Z,0.00
2018-01-17T04:58:34.713Z,0.00
2018-01-17T05:00:29.652Z,0.00
2018-01-17T05:01:29.133Z,0.00
2018-01-17T05:03:25.075Z,0.00
2018-01-17T05:04:25.056Z,0.00
2018-01-17T05:06:21.504Z,0.00
2018-01-17T05:07:20.976Z,0.00
2018-01-17T05:09:17.861Z,0.00
2018-01-17T05:10:18.361Z,0.00
2018-01-17T05:12:12.852Z,0.00
2018-01-17T05:13:12.844Z,0.00
2018-01-17T05:15:10.777Z,0.00
2018-01-17T05:16:10.781Z,0.00
2018-01-17T05:18:08.641Z,0.00
2018-01-17T05:19:07.207Z,0.00
2018-01-17T05:21:02.604Z,0.00
2018-01-17T05:22:02.614Z,0.00
2018-01-17T05:23:58.543Z,0.00
2018-01-17T05:25:00.066Z,0.00
2018-01-17T05:26:56.390Z,0.00
2018-01-17T05:27:55.848Z,0.00
2018-01-17T05:29:51.753Z,0.00
2018-01-17T05:30:51.754Z,0.00
2018-01-17T05:32:47.705Z,0.00
2018-01-17T05:33:47.641Z,0.00
2018-01-17T05:35:43.635Z,0.00
2018-01-17T05:36:43.589Z,0.00
2018-01-17T05:38:39.497Z,0.00
2018-01-17T05:39:39.478Z,0.00
2018-01-17T05:41:35.951Z,0.00
2018-01-17T05:42:35.389Z,0.00
2018-01-17T05:44:31.907Z,0.00
2018-01-17T05:45:31.315Z,0.00
2018-01-17T05:47:27.836Z,0.00
2018-01-17T05:48:28.185Z,0.00
2018-01-17T05:50:23.684Z,0.00
2018-01-17T05:51:23.161Z,0.00
2018-01-17T05:53:21.113Z,0.00
2018-01-17T05:54:21.615Z,0.00
2018-01-17T05:56:17.097Z,0.00
2018-01-17T05:57:18.009Z,0.00
2018-01-17T05:59:12.984Z,0.00
2018-01-17T06:00:12.973Z,0.00
2018-01-17T06:02:08.929Z,0.00
2018-01-17T06:03:09.441Z,0.00
2018-01-17T06:05:04.884Z,0.00
2018-01-17T06:06:04.867Z,0.00
2018-01-17T06:08:01.318Z,0.00
2018-01-17T06:09:00.806Z,0.00
2018-01-17T06:10:59.257Z,0.00
2018-01-17T06:11:58.810Z,0.00
2018-01-17T06:13:54.788Z,0.00
2018-01-17T06:14:55.280Z,0.00
2018-01-17T06:16:52.661Z,0.00
2018-01-17T06:17:54.185Z,0.00
2018-01-17T06:19:51.136Z,0.00
2018-01-17T06:20:50.696Z,0.00
2018-01-17T06:22:49.021Z,0.00
2018-01-17T06:23:48.587Z,0.00
2018-01-17T06:25:44.524Z,0.00
2018-01-17T06:26:44.491Z,0.00
2018-01-17T06:28:40.458Z,0.00
2018-01-17T06:29:40.394Z,0.00
2018-01-17T06:31:38.846Z,0.00
2018-01-17T06:32:38.309Z,0.00
2018-01-17T06:34:35.250Z,0.00
2018-01-17T06:35:35.211Z,0.00
2018-01-17T06:37:31.158Z,0.00
2018-01-17T06:38:31.140Z,0.00
2018-01-17T06:40:27.136Z,0.00
2018-01-17T06:41:27.048Z,0.00
2018-01-17T06:43:24.013Z,0.00
2018-01-17T06:44:22.963Z,0.00
2018-01-17T06:46:18.888Z,0.00
2018-01-17T06:47:18.904Z,0.00
2018-01-17T06:49:14.866Z,0.00
2018-01-17T06:50:14.830Z,0.00
2018-01-17T06:52:10.736Z,0.00
2018-01-17T06:53:10.727Z,0.00
2018-01-17T06:55:06.715Z,0.00
2018-01-17T06:56:06.668Z,0.00
2018-01-17T06:58:02.631Z,0.00
2018-01-17T06:59:02.585Z,0.00
2018-01-17T07:00:59.055Z,0.00
2018-01-17T07:01:59.030Z,0.00
2018-01-17T07:03:54.447Z,0.00
2018-01-17T07:04:54.937Z,0.00
2018-01-17T07:06:50.324Z,0.00
2018-01-17T07:07:50.874Z,0.00
2018-01-17T07:09:46.295Z,0.00
2018-01-17T07:12:04.207Z,0.00
2018-01-17T07:13:03.458Z,0.00
2018-01-17T07:15:00.546Z,0.00
2018-01-17T07:17:17.202Z,0.00
2018-01-17T07:18:17.172Z,0.00
2018-01-17T07:20:13.012Z,0.00
2018-01-17T07:21:12.465Z,0.00
2018-01-17T07:23:06.985Z,0.00
2018-01-17T07:24:07.067Z,0.00
2018-01-17T07:26:02.946Z,5.63
2018-01-17T07:27:02.887Z,5.63
2018-01-17T07:28:58.804Z,5.63
2018-01-17T07:29:59.326Z,5.63
2018-01-17T07:31:54.743Z,5.63
2018-01-17T07:32:54.751Z,5.63
2018-01-17T07:34:50.187Z,5.63
2018-01-17T07:35:49.679Z,5.63
2018-01-17T07:37:45.605Z,5.63
2018-01-17T07:38:45.057Z,5.63
2018-01-17T07:40:40.997Z,5.63
2018-01-17T07:41:41.491Z,5.63
2018-01-17T07:43:39.899Z,5.63
2018-01-17T07:44:37.937Z,5.63
2018-01-17T07:46:33.859Z,5.63
2018-01-17T07:47:33.836Z,5.63
2018-01-17T07:49:30.810Z,0.00
2018-01-17T07:50:29.834Z,0.00
2018-01-17T07:52:25.765Z,0.00
2018-01-17T07:53:25.738Z,0.00
2018-01-17T07:55:22.180Z,0.00
2018-01-17T07:56:21.667Z,0.00
2018-01-17T07:58:18.096Z,11.25
2018-01-17T07:59:17.579Z,16.88
2018-01-17T08:01:15.495Z,16.88
2018-01-17T08:02:15.509Z,16.88
2018-01-17T08:04:11.416Z,22.50
2018-01-17T08:05:11.405Z,22.50
2018-01-17T08:07:07.356Z,28.13
2018-01-17T08:08:07.337Z,28.13
2018-01-17T08:10:03.268Z,33.75
2018-01-17T08:11:03.261Z,33.75
2018-01-17T08:12:59.213Z,39.38
2018-01-17T08:13:59.165Z,39.38
2018-01-17T08:15:55.072Z,39.38
2018-01-17T08:16:55.066Z,39.38
2018-01-17T08:18:51.048Z,39.38
2018-01-17T08:19:51.515Z,39.38
2018-01-17T08:21:49.013Z,39.38
2018-01-17T08:22:49.011Z,39.38
2018-01-17T08:24:44.966Z,45.00
2018-01-17T08:25:45.447Z,45.00
2018-01-17T08:27:40.886Z,45.00
2018-01-17T08:28:40.887Z,50.63
2018-01-17T08:30:36.874Z,56.25
2018-01-17T08:31:36.822Z,56.25
2018-01-17T08:33:32.736Z,78.75
2018-01-17T08:34:33.255Z,84.38
2018-01-17T08:36:29.665Z,73.13
2018-01-17T08:37:28.633Z,73.13
2018-01-17T08:39:24.598Z,78.75
2018-01-17T08:40:25.086Z,90.00
2018-01-17T08:42:20.997Z,123.75
2018-01-17T08:43:20.441Z,135.00
2018-01-17T08:45:17.384Z,106.88
2018-01-17T08:46:16.389Z,118.13
2018-01-17T08:48:14.340Z,67.50
2018-01-17T08:49:14.296Z,67.50
2018-01-17T08:51:10.227Z,90.00
2018-01-17T08:52:10.217Z,90.00
2018-01-17T08:54:06.165Z,61.88
2018-01-17T08:55:06.639Z,67.50
2018-01-17T08:57:02.573Z,78.75
2018-01-17T08:58:02.033Z,78.75
2018-01-17T08:59:57.957Z,135.00
2018-01-17T09:00:57.946Z,140.63
2018-01-17T09:02:53.896Z,112.50
2018-01-17T09:03:54.408Z,123.75
2018-01-17T09:05:49.801Z,146.25
2018-01-17T09:06:49.773Z,129.38
2018-01-17T09:08:45.754Z,118.13
2018-01-17T09:09:45.703Z,101.25
2018-01-17T09:11:42.151Z,123.75
2018-01-17T09:12:41.638Z,129.38
2018-01-17T09:14:37.520Z,112.50
2018-01-17T09:15:38.046Z,95.63
2018-01-17T09:17:33.978Z,73.13
2018-01-17T09:18:33.455Z,90.00
2018-01-17T09:20:29.373Z,118.13
2018-01-17T09:21:29.374Z,106.88
2018-01-17T09:23:25.332Z,191.25
2018-01-17T09:24:25.317Z,129.38
2018-01-17T09:26:21.216Z,163.13
2018-01-17T09:27:21.744Z,146.25
2018-01-17T09:29:18.169Z,157.50
2018-01-17T09:30:17.140Z,208.13
2018-01-17T09:32:13.592Z,174.38
2018-01-17T09:33:13.081Z,146.25
2018-01-17T09:35:09.533Z,135.00
2018-01-17T09:36:09.007Z,151.88
2018-01-17T09:38:05.442Z,174.38
2018-01-17T09:39:05.461Z,196.88
2018-01-17T09:41:01.378Z,241.88
2018-01-17T09:42:01.364Z,202.50
2018-01-17T09:43:56.752Z,73.13
2018-01-17T09:44:56.746Z,33.75
2018-01-17T09:46:53.210Z,33.75
2018-01-17T09:47:52.716Z,33.75
2018-01-17T09:49:48.636Z,33.75
2018-01-17T09:50:49.145Z,28.13
2018-01-17T09:52:45.054Z,22.50
2018-01-17T09:53:45.057Z,16.88
2018-01-17T09:55:40.490Z,22.50
2018-01-17T09:56:40.409Z,22.50
2018-01-17T09:58:36.316Z,45.00
2018-01-17T09:59:36.342Z,56.25
2018-01-17T10:01:30.765Z,61.88
2018-01-17T10:02:30.778Z,73.13
2018-01-17T10:04:27.221Z,95.63
2018-01-17T10:05:26.662Z,90.00
2018-01-17T10:07:23.114Z,56.25
2018-01-17T10:08:22.595Z,67.50
2018-01-17T10:10:17.034Z,84.38
2018-01-17T10:11:17.023Z,90.00
2018-01-17T10:13:13.466Z,106.88
2018-01-17T10:14:12.928Z,123.75
2018-01-17T10:16:07.643Z,129.38
2018-01-17T10:17:07.339Z,129.38
2018-01-17T10:19:05.270Z,112.50
2018-01-17T10:20:05.255Z,118.13
2018-01-17T10:22:01.216Z,123.75
2018-01-17T10:23:01.177Z,118.13
2018-01-17T10:24:57.117Z,123.75
2018-01-17T10:25:57.105Z,140.63
2018-01-17T10:27:53.088Z,230.63
2018-01-17T10:28:53.063Z,275.63
2018-01-17T10:30:49.990Z,191.25
2018-01-17T10:31:48.958Z,180.00
2018-01-17T10:33:45.905Z,123.75
2018-01-17T10:34:44.913Z,106.88
2018-01-17T10:36:42.811Z,112.50
2018-01-17T10:37:43.354Z,123.75
2018-01-17T10:39:38.763Z,157.50
2018-01-17T10:40:39.319Z,157.50
2018-01-17T10:42:35.210Z,219.38
2018-01-17T10:43:34.648Z,191.25
2018-01-17T10:45:30.551Z,213.75
2018-01-17T10:46:31.520Z,241.88
2018-01-17T10:48:26.491Z,241.88
2018-01-17T10:49:26.510Z,191.25
2018-01-17T10:51:24.427Z,196.88
2018-01-17T10:52:24.392Z,191.25
2018-01-17T10:54:20.380Z,140.63
2018-01-17T10:55:20.323Z,101.25
2018-01-17T10:57:16.767Z,118.13
2018-01-17T10:58:16.230Z,129.38
2018-01-17T11:00:12.210Z,174.38
2018-01-17T11:01:12.183Z,219.38
2018-01-17T11:03:08.618Z,185.63
2018-01-17T11:04:08.068Z,174.38
2018-01-17T11:06:04.509Z,163.13
2018-01-17T11:07:03.999Z,157.50
2018-01-17T11:09:00.921Z,168.75
2018-01-17T11:09:59.905Z,101.25
2018-01-17T11:11:58.846Z,90.00
2018-01-17T11:12:57.940Z,123.75
2018-01-17T11:14:53.909Z,168.75
2018-01-17T11:15:53.879Z,174.38
2018-01-17T11:17:49.834Z,168.75
2018-01-17T11:18:49.795Z,185.63
2018-01-17T11:20:45.764Z,219.38
2018-01-17T11:21:45.730Z,208.13
2018-01-17T11:23:41.692Z,185.63
2018-01-17T11:24:41.727Z,185.63
2018-01-17T11:26:38.120Z,157.50
2018-01-17T11:27:37.609Z,168.75
2018-01-17T11:29:34.975Z,163.13
2018-01-17T11:30:33.530Z,129.38
2018-01-17T11:32:29.441Z,140.63
2018-01-17T11:33:29.452Z,135.00
2018-01-17T11:35:25.369Z,112.50
2018-01-17T11:36:25.320Z,95.63
2018-01-17T11:38:21.268Z,118.13
2018-01-17T11:39:21.239Z,123.75
2018-01-17T11:41:19.218Z,112.50
2018-01-17T11:42:19.686Z,157.50
2018-01-17T11:44:16.120Z,163.13
2018-01-17T11:45:15.105Z,140.63
2018-01-17T11:47:11.069Z,163.13
2018-01-17T11:48:11.039Z,157.50
2018-01-17T11:50:07.480Z,163.13
2018-01-17T11:51:07.486Z,163.13
2018-01-17T11:53:02.850Z,180.00
2018-01-17T11:54:02.838Z,163.13
2018-01-17T11:55:59.791Z,185.63
2018-01-17T11:56:58.795Z,185.63
2018-01-17T11:58:54.709Z,174.38
2018-01-17T11:59:54.704Z,180.00
2018-01-17T12:01:50.614Z,135.00
2018-01-17T12:02:50.612Z,135.00
2018-01-17T12:04:47.061Z,140.63
2018-01-17T12:05:47.083Z,157.50
2018-01-17T12:07:42.994Z,140.63
2018-01-17T12:08:42.468Z,163.13
2018-01-17T12:10:38.401Z,157.50
2018-01-17T12:11:38.392Z,140.63
2018-01-17T12:13:34.315Z,191.25
2018-01-17T12:14:34.311Z,202.50
2018-01-17T12:16:30.266Z,157.50
2018-01-17T12:17:31.187Z,135.00
2018-01-17T12:19:26.226Z,225.00
2018-01-17T12:20:26.259Z,157.50
2018-01-17T12:22:22.104Z,157.50
2018-01-17T12:23:22.128Z,151.88
2018-01-17T12:25:18.575Z,168.75
2018-01-17T12:26:18.049Z,157.50
2018-01-17T12:28:13.993Z,168.75
2018-01-17T12:29:14.489Z,151.88
2018-01-17T12:31:10.239Z,213.75
2018-01-17T12:32:10.053Z,236.25
2018-01-17T12:34:28.358Z,151.88
2018-01-17T12:35:10.153Z,180.00
2018-01-17T12:37:07.290Z,213.75
2018-01-17T12:38:03.901Z,163.13
2018-01-17T12:39:59.807Z,140.63
2018-01-17T12:40:59.804Z,129.38
2018-01-17T12:42:54.783Z,129.38
2018-01-17T12:43:54.232Z,129.38
2018-01-17T12:45:52.159Z,118.13
2018-01-17T12:46:50.460Z,118.13
2018-01-17T12:49:38.511Z,112.50
2018-01-17T12:50:43.444Z,106.88
2018-01-17T12:52:37.918Z,106.88
2018-01-17T12:54:50.166Z,106.88
2018-01-17T12:55:49.667Z,106.88
2018-01-17T12:57:44.740Z,123.75
2018-01-17T12:58:44.681Z,146.25
2018-01-17T13:00:40.619Z,135.00
2018-01-17T13:01:40.630Z,135.00
2018-01-17T13:03:37.068Z,146.25
2018-01-17T13:04:36.553Z,174.38
2018-01-17T13:06:30.990Z,90.00
2018-01-17T13:07:30.968Z,106.88
2018-01-17T13:09:27.407Z,129.38
2018-01-17T13:10:27.900Z,135.00
2018-01-17T13:12:23.897Z,129.38
2018-01-17T13:13:22.847Z,123.75
2018-01-17T13:15:19.792Z,140.63
2018-01-17T13:16:18.755Z,140.63
2018-01-17T13:18:13.201Z,168.75
2018-01-17T13:19:13.701Z,146.25
2018-01-17T13:21:09.128Z,163.13
2018-01-17T13:22:09.110Z,140.63
2018-01-17T13:24:05.569Z,106.88
2018-01-17T13:25:05.041Z,112.50
2018-01-17T13:27:01.998Z,95.63
2018-01-17T13:28:00.973Z,106.88
2018-01-17T13:29:56.956Z,112.50
2018-01-17T13:30:57.130Z,112.50
2018-01-17T13:32:54.392Z,151.88
2018-01-17T13:33:53.359Z,163.13
2018-01-17T13:35:48.252Z,185.63
2018-01-17T13:36:47.753Z,230.63
2018-01-17T13:38:40.708Z,180.00
2018-01-17T13:39:40.699Z,135.00
2018-01-17T13:41:36.681Z,118.13
2018-01-17T13:42:36.620Z,140.63
2018-01-17T13:44:32.559Z,140.63
2018-01-17T13:45:33.050Z,129.38
2018-01-17T13:47:28.488Z,157.50
2018-01-17T13:48:28.457Z,129.38
2018-01-17T13:50:21.913Z,163.13
2018-01-17T13:51:21.896Z,185.63
2018-01-17T13:53:16.349Z,202.50
2018-01-17T13:54:16.346Z,180.00
2018-01-17T13:56:12.361Z,180.00
2018-01-17T13:57:12.286Z,191.25
2018-01-17T13:59:07.662Z,95.63
2018-01-17T14:00:06.879Z,106.88
2018-01-17T14:02:03.230Z,101.25
2018-01-17T14:03:02.731Z,90.00
2018-01-17T14:04:57.646Z,129.38
2018-01-17T14:05:57.405Z,174.38
2018-01-17T14:07:55.060Z,241.88
2018-01-17T14:08:55.248Z,236.25
2018-01-17T14:10:49.521Z,208.13
2018-01-17T14:11:50.073Z,157.50
2018-01-17T14:13:45.436Z,118.13
2018-01-17T14:14:45.428Z,106.88
2018-01-17T14:16:43.508Z,106.88
2018-01-17T14:17:42.188Z,118.13
2018-01-17T14:19:36.645Z,84.38
2018-01-17T14:20:37.562Z,73.13
2018-01-17T14:22:32.149Z,61.88
2018-01-17T14:23:32.619Z,39.38
2018-01-17T14:25:27.953Z,39.38
2018-01-17T14:26:28.338Z,33.75
2018-01-17T14:28:23.090Z,33.75
2018-01-17T14:29:23.470Z,39.38
2018-01-17T14:31:19.556Z,22.50
2018-01-17T14:32:19.025Z,11.25
2018-01-17T14:34:14.992Z,22.50
2018-01-17T14:35:14.949Z,45.00
2018-01-17T14:37:10.901Z,67.50
2018-01-17T14:38:11.391Z,56.25
2018-01-17T14:40:05.436Z,39.38
2018-01-17T14:41:06.340Z,67.50
2018-01-17T14:43:00.856Z,140.63
2018-01-17T14:44:00.216Z,157.50
2018-01-17T14:52:07.413Z,84.38
2018-01-17T14:53:07.317Z,56.25
2018-01-17T14:55:02.772Z,61.88
2018-01-17T14:56:02.925Z,73.13
2018-01-17T14:57:59.704Z,112.50
2018-01-17T14:58:59.182Z,95.63
2018-01-17T15:00:56.118Z,45.00
2018-01-17T15:01:56.141Z,39.38
2018-01-17T15:03:52.123Z,22.50
2018-01-17T15:04:51.198Z,16.88
2018-01-17T15:06:47.587Z,33.75
2018-01-17T15:07:48.008Z,39.38
2018-01-17T15:09:41.536Z,50.63
2018-01-17T15:10:41.560Z,56.25
2018-01-17T15:12:38.853Z,50.63
2018-01-17T15:13:38.124Z,45.00
2018-01-17T15:15:34.442Z,50.63
2018-01-17T15:16:33.587Z,67.50
2018-01-17T15:18:28.604Z,78.75
2018-01-17T15:19:28.026Z,90.00
2018-01-17T15:21:27.847Z,84.38
2018-01-17T15:22:25.346Z,78.75
2018-01-17T15:24:18.424Z,39.38
2018-01-17T15:25:19.478Z,39.38
2018-01-17T15:27:12.973Z,39.38
2018-01-17T15:28:11.923Z,33.75
2018-01-17T15:30:07.947Z,28.13
2018-01-17T15:31:08.042Z,28.13
2018-01-17T15:33:02.415Z,22.50
2018-01-17T15:34:05.383Z,22.50
2018-01-17T15:35:56.902Z,22.50
2018-01-17T15:36:58.110Z,22.50
2018-01-17T15:38:54.889Z,22.50
2018-01-17T15:39:54.895Z,22.50
2018-01-17T15:41:53.080Z,16.88
2018-01-17T15:42:50.836Z,16.88
2018-01-17T15:44:45.786Z,16.88
2018-01-17T15:45:45.251Z,16.88
2018-01-17T15:47:41.228Z,16.88
2018-01-17T15:48:41.186Z,16.88
2018-01-17T15:50:38.130Z,11.25
2018-01-17T15:51:37.326Z,11.25
2018-01-17T15:53:33.082Z,5.63
2018-01-17T15:54:33.166Z,5.63
2018-01-17T15:56:30.525Z,5.63
2018-01-17T15:57:29.053Z,5.63
2018-01-17T15:59:27.020Z,5.63
2018-01-17T16:00:27.929Z,5.63
2018-01-17T16:02:23.425Z,0.00
2018-01-17T16:03:22.887Z,0.00
2018-01-17T16:05:19.750Z,0.00
2018-01-17T16:06:19.350Z,0.00
2018-01-17T16:08:16.768Z,0.00
2018-01-17T16:09:17.025Z,0.00
2018-01-17T16:11:14.515Z,0.00
2018-01-17T16:13:36.598Z,0.00
2018-01-17T16:14:30.861Z,0.00
2018-01-17T16:16:39.995Z,0.00
2018-01-17T16:17:39.986Z,0.00
2018-01-17T16:19:35.945Z,0.00
2018-01-17T16:20:35.947Z,0.00
2018-01-17T16:22:31.948Z,0.00
2018-01-17T16:23:31.856Z,0.00
2018-01-17T16:25:31.730Z,0.00
2018-01-17T16:26:29.965Z,0.00
2018-01-17T16:28:25.846Z,0.00
2018-01-17T16:29:25.874Z,0.00
2018-01-17T16:31:19.352Z,0.00
2018-01-17T16:32:19.316Z,0.00
2018-01-17T16:34:13.763Z,0.00
2018-01-17T16:35:13.740Z,0.00
2018-01-17T16:37:09.654Z,0.00
2018-01-17T16:38:08.197Z,0.00
2018-01-17T16:40:03.662Z,0.00
2018-01-17T16:41:03.490Z,0.00
2018-01-17T16:42:59.438Z,0.00
2018-01-17T16:43:59.501Z,0.00
2018-01-17T16:45:57.917Z,0.00
2018-01-17T16:46:53.937Z,0.00
2018-01-17T16:48:50.808Z,0.00
2018-01-17T16:49:49.801Z,0.00
2018-01-17T16:51:45.784Z,0.00
2018-01-17T16:52:45.883Z,0.00
2018-01-17T16:54:41.688Z,0.00
2018-01-17T16:55:41.647Z,0.00
2018-01-17T16:57:38.544Z,0.00
2018-01-17T16:58:37.875Z,0.00
2018-01-17T17:00:33.503Z,0.00
2018-01-17T17:01:34.463Z,0.00
2018-01-17T17:03:29.180Z,0.00
2018-01-17T17:04:28.276Z,0.00
2018-01-17T17:06:25.197Z,0.00
2018-01-17T17:07:24.172Z,0.00
2018-01-17T17:09:19.154Z,0.00
2018-01-17T17:10:19.152Z,0.00
2018-01-17T17:12:15.042Z,0.00
2018-01-17T17:13:14.533Z,0.00
2018-01-17T17:15:11.004Z,0.00
2018-01-17T17:16:10.533Z,0.00
2018-01-17T17:18:04.963Z,0.00
2018-01-17T17:19:03.977Z,0.00
2018-01-17T17:20:58.391Z,0.00
2018-01-17T17:21:58.883Z,0.00
2018-01-17T17:24:55.247Z,0.00
2018-01-17T17:26:50.756Z,0.00
2018-01-17T17:27:50.222Z,0.00
2018-01-17T17:29:46.667Z,0.00
2018-01-17T17:30:46.673Z,0.00
2018-01-17T17:32:44.816Z,0.00
2018-01-17T17:33:44.824Z,0.00
2018-01-17T17:35:40.273Z,0.00
2018-01-17T17:36:40.702Z,0.00
2018-01-17T17:38:34.378Z,0.00
2018-01-17T17:39:33.665Z,0.00
2018-01-17T17:41:28.619Z,0.00
2018-01-17T17:42:29.616Z,0.00
2018-01-17T17:44:24.027Z,0.00
2018-01-17T17:45:24.013Z,0.00
2018-01-17T17:47:18.479Z,0.00
2018-01-17T17:48:18.456Z,0.00
2018-01-17T17:50:13.410Z,0.00
2018-01-17T17:51:12.863Z,0.00
2018-01-17T17:53:09.307Z,0.00
2018-01-17T17:54:08.761Z,0.00
2018-01-17T17:56:07.744Z,0.00
2018-01-17T17:57:05.238Z,0.00
2018-01-17T17:59:00.752Z,0.00
2018-01-17T18:00:00.748Z,0.00
2018-01-17T18:01:57.702Z,0.00
2018-01-17T18:02:56.663Z,0.00
2018-01-17T18:04:54.545Z,0.00
2018-01-17T18:05:52.776Z,0.00
2018-01-17T18:07:47.693Z,0.00
2018-01-17T18:08:47.184Z,0.00
2018-01-17T18:10:43.630Z,0.00
2018-01-17T18:11:43.125Z,0.00
2018-01-17T18:13:36.733Z,0.00
2018-01-17T18:14:36.539Z,0.00
2018-01-17T18:17:09.874Z,0.00
2018-01-17T18:18:09.868Z,0.00
2018-01-17T18:20:05.796Z,0.00
2018-01-17T18:21:06.317Z,0.00
2018-01-17T18:23:00.207Z,0.00
2018-01-17T18:24:01.735Z,0.00
2018-01-17T18:25:56.130Z,0.00
2018-01-17T18:26:56.138Z,0.00
2018-01-17T18:28:52.552Z,0.00
2018-01-17T18:29:52.037Z,0.00
2018-01-17T18:31:47.480Z,0.00
2018-01-17T18:32:47.911Z,0.00
2018-01-17T18:34:42.903Z,0.00
2018-01-17T18:35:42.384Z,0.00
2018-01-17T18:37:35.815Z,0.00
2018-01-17T18:38:35.808Z,0.00
2018-01-17T18:40:33.248Z,0.00
2018-01-17T18:41:31.722Z,0.00
2018-01-17T18:43:26.671Z,0.00
2018-01-17T18:44:26.173Z,0.00
2018-01-17T18:46:22.596Z,0.00
2018-01-17T18:47:22.610Z,0.00
2018-01-17T18:49:16.487Z,0.00
2018-01-17T18:50:16.487Z,0.00
2018-01-17T18:52:12.484Z,0.00
2018-01-17T18:53:12.446Z,0.00
2018-01-17T18:55:08.392Z,0.00
2018-01-17T18:56:08.348Z,0.00
2018-01-17T18:58:02.786Z,0.00
2018-01-17T18:59:02.766Z,0.00
2018-01-17T19:00:58.706Z,0.00
2018-01-17T19:01:58.703Z,0.00
2018-01-17T19:03:54.596Z,0.00
2018-01-17T19:04:54.623Z,0.00
2018-01-17T19:06:50.524Z,0.00
2018-01-17T19:07:50.544Z,0.00
2018-01-17T19:09:45.975Z,0.00
2018-01-17T19:10:44.959Z,0.00
2018-01-17T19:12:38.389Z,0.00
2018-01-17T19:13:38.906Z,0.00
2018-01-17T19:15:34.350Z,0.00
2018-01-17T19:16:34.304Z,0.00
2018-01-17T19:18:28.766Z,0.00